Winedale's Hourly Summary for Sunday, May 13, 2018
Hour Temp
(f)
RH
(%)
Solar Rad.
(MJ/m2)
Rainfall
(in)
Wind
(mph)
5/13/2018 12:00 AM 74 82 0 0 4.04
5/13/2018 1:00 AM 73 88 0 0 3.15
5/13/2018 2:00 AM 72 93 0 0 3.3
5/13/2018 3:00 AM 73 94 0 0 3.89
5/13/2018 4:00 AM 73 94 0 0 3.92
5/13/2018 5:00 AM 73 93 0 0 3.82
5/13/2018 6:00 AM 72 93 0 0 3.32
5/13/2018 7:00 AM 73 93 0.01 0 3.04
5/13/2018 8:00 AM 73 90 0.23 0 2.8
5/13/2018 9:00 AM 75 85 0.55 0 4
5/13/2018 10:00 AM 77 70 1.23 0 5.8
5/13/2018 11:00 AM 81 63 1.94 0 5.85
5/13/2018 12:00 PM 83 60 2.72 0 5.51
5/13/2018 1:00 PM 84 55 2.54 0 4.89
5/13/2018 2:00 PM 86 49 2.56 0 4.88
5/13/2018 3:00 PM 88 46 2.92 0 5.56
5/13/2018 4:00 PM 89 44 2.21 0 5.68
5/13/2018 5:00 PM 90 42 1.91 0 5.39
5/13/2018 6:00 PM 89 43 0.62 0 4.96
5/13/2018 7:00 PM 86 45 0.47 0 4.45
5/13/2018 8:00 PM 85 52 0.33 0 4.77
5/13/2018 9:00 PM 81 60 0 0 3.92
5/13/2018 10:00 PM 78 67 0 0 3.04
5/13/2018 11:00 PM 76 74 0 0 4.4
Data Summary 79 69 20.24 0.00 4.35